<?xml version="1.0" encoding="UTF-8" standalone="no" ?>
<gpx xmlns="http://www.topografix.com/GPX/1/1" xmlns:xsi="http://www.w3.org/2001/XMLSchema-instance" xsi:schemaLocation="http://www.topografix.com/GPX/1/1 http://www.topografix.com/GPX/1/1/gpx.xsd" version="1.1" creator="VisuGPX - https://www.visugpx.com">
  <metadata>
    <name>Cavaliers aligot 2021 trajet aller 14 km</name>
  </metadata>
  <trk>
    <name><![CDATA[Cavaliers aligot 2021 trajet aller 14 km]]></name>
    <trkseg>
      <trkpt lat="48.69037" lon="1.96075">
        <ele>176</ele>
        <time>2021-08-26T10:32:13+02:00</time>
      </trkpt>
      <trkpt lat="48.68421" lon="1.95563">
        <ele>176</ele>
        <time>2021-08-26T10:32:18+02:00</time>
      </trkpt>
      <trkpt lat="48.68623" lon="1.94958">
        <ele>183</ele>
        <time>2021-08-26T10:32:23+02:00</time>
      </trkpt>
      <trkpt lat="48.69431" lon="1.92924">
        <ele>181</ele>
        <time>2021-08-26T10:32:28+02:00</time>
      </trkpt>
      <trkpt lat="48.69192" lon="1.92766">
        <ele>175</ele>
        <time>2021-08-26T10:32:33+02:00</time>
      </trkpt>
      <trkpt lat="48.69154" lon="1.92707">
        <ele>174</ele>
        <time>2021-08-26T10:32:38+02:00</time>
      </trkpt>
      <trkpt lat="48.69107" lon="1.92679">
        <ele>175</ele>
        <time>2021-08-26T10:32:43+02:00</time>
      </trkpt>
      <trkpt lat="48.69045" lon="1.92626">
        <ele>173</ele>
        <time>2021-08-26T10:32:48+02:00</time>
      </trkpt>
      <trkpt lat="48.69047" lon="1.92584">
        <ele>175</ele>
        <time>2021-08-26T10:32:53+02:00</time>
      </trkpt>
      <trkpt lat="48.69135" lon="1.92109">
        <ele>169</ele>
        <time>2021-08-26T10:32:58+02:00</time>
      </trkpt>
      <trkpt lat="48.69174" lon="1.92042">
        <ele>172</ele>
        <time>2021-08-26T10:33:03+02:00</time>
      </trkpt>
      <trkpt lat="48.69252" lon="1.92042">
        <ele>174</ele>
        <time>2021-08-26T10:33:08+02:00</time>
      </trkpt>
      <trkpt lat="48.6929" lon="1.91976">
        <ele>174</ele>
        <time>2021-08-26T10:33:13+02:00</time>
      </trkpt>
      <trkpt lat="48.69316" lon="1.91813">
        <ele>173</ele>
        <time>2021-08-26T10:33:18+02:00</time>
      </trkpt>
      <trkpt lat="48.69345" lon="1.91738">
        <ele>167</ele>
        <time>2021-08-26T10:33:23+02:00</time>
      </trkpt>
      <trkpt lat="48.69358" lon="1.91669">
        <ele>156</ele>
        <time>2021-08-26T10:33:28+02:00</time>
      </trkpt>
      <trkpt lat="48.69414" lon="1.91712">
        <ele>159</ele>
        <time>2021-08-26T10:33:33+02:00</time>
      </trkpt>
      <trkpt lat="48.69405" lon="1.9165">
        <ele>152</ele>
        <time>2021-08-26T10:33:38+02:00</time>
      </trkpt>
      <trkpt lat="48.69426" lon="1.91584">
        <ele>146</ele>
        <time>2021-08-26T10:33:43+02:00</time>
      </trkpt>
      <trkpt lat="48.69367" lon="1.91499">
        <ele>138</ele>
        <time>2021-08-26T10:33:48+02:00</time>
      </trkpt>
      <trkpt lat="48.6921" lon="1.91116">
        <ele>143</ele>
        <time>2021-08-26T10:33:53+02:00</time>
      </trkpt>
      <trkpt lat="48.69175" lon="1.91008">
        <ele>144</ele>
        <time>2021-08-26T10:33:58+02:00</time>
      </trkpt>
      <trkpt lat="48.69165" lon="1.90859">
        <ele>149</ele>
        <time>2021-08-26T10:34:03+02:00</time>
      </trkpt>
      <trkpt lat="48.6916" lon="1.90821">
        <ele>151</ele>
        <time>2021-08-26T10:34:08+02:00</time>
      </trkpt>
      <trkpt lat="48.69156" lon="1.90769">
        <ele>155</ele>
        <time>2021-08-26T10:34:13+02:00</time>
      </trkpt>
      <trkpt lat="48.69142" lon="1.90632">
        <ele>169</ele>
        <time>2021-08-26T10:34:18+02:00</time>
      </trkpt>
      <trkpt lat="48.6913" lon="1.90511">
        <ele>176</ele>
        <time>2021-08-26T10:34:23+02:00</time>
      </trkpt>
      <trkpt lat="48.69128" lon="1.90477">
        <ele>177</ele>
        <time>2021-08-26T10:34:28+02:00</time>
      </trkpt>
      <trkpt lat="48.6911" lon="1.90422">
        <ele>179</ele>
        <time>2021-08-26T10:34:33+02:00</time>
      </trkpt>
      <trkpt lat="48.69081" lon="1.9038">
        <ele>180</ele>
        <time>2021-08-26T10:34:38+02:00</time>
      </trkpt>
      <trkpt lat="48.69041" lon="1.90341">
        <ele>181</ele>
        <time>2021-08-26T10:34:43+02:00</time>
      </trkpt>
      <trkpt lat="48.68887" lon="1.90206">
        <ele>184</ele>
        <time>2021-08-26T10:34:48+02:00</time>
      </trkpt>
      <trkpt lat="48.68603" lon="1.8968">
        <ele>182</ele>
        <time>2021-08-26T10:34:53+02:00</time>
      </trkpt>
      <trkpt lat="48.686" lon="1.88751">
        <ele>181</ele>
        <time>2021-08-26T10:34:58+02:00</time>
      </trkpt>
      <trkpt lat="48.68601" lon="1.88541">
        <ele>179</ele>
        <time>2021-08-26T10:35:03+02:00</time>
      </trkpt>
      <trkpt lat="48.68308" lon="1.87716">
        <ele>174</ele>
        <time>2021-08-26T10:35:08+02:00</time>
      </trkpt>
      <trkpt lat="48.6806" lon="1.87036">
        <ele>172</ele>
        <time>2021-08-26T10:35:13+02:00</time>
      </trkpt>
      <trkpt lat="48.68025" lon="1.87005">
        <ele>171</ele>
        <time>2021-08-26T10:35:18+02:00</time>
      </trkpt>
      <trkpt lat="48.67751" lon="1.86551">
        <ele>174</ele>
        <time>2021-08-26T10:35:23+02:00</time>
      </trkpt>
      <trkpt lat="48.67794" lon="1.85854">
        <ele>178</ele>
        <time>2021-08-26T10:35:28+02:00</time>
      </trkpt>
      <trkpt lat="48.67448" lon="1.8569">
        <ele>175</ele>
        <time>2021-08-26T10:35:33+02:00</time>
      </trkpt>
      <trkpt lat="48.67475" lon="1.85174">
        <ele>176</ele>
        <time>2021-08-26T10:35:38+02:00</time>
      </trkpt>
      <trkpt lat="48.67505" lon="1.84656">
        <ele>179</ele>
        <time>2021-08-26T10:35:43+02:00</time>
      </trkpt>
      <trkpt lat="48.66782" lon="1.84297">
        <ele>177</ele>
        <time>2021-08-26T10:35:48+02:00</time>
      </trkpt>
      <trkpt lat="48.6669" lon="1.86172">
        <ele>183</ele>
        <time>2021-08-26T10:35:53+02:00</time>
      </trkpt>
      <trkpt lat="48.66502" lon="1.86409">
        <ele>182</ele>
        <time>2021-08-26T10:35:58+02:00</time>
      </trkpt>
      <trkpt lat="48.66525" lon="1.86447">
        <ele>182</ele>
        <time>2021-08-26T10:36:03+02:00</time>
      </trkpt>
      <trkpt lat="48.66555" lon="1.86464">
        <ele>182</ele>
        <time>2021-08-26T10:36:08+02:00</time>
      </trkpt>
      <trkpt lat="48.6663" lon="1.86478">
        <ele>182</ele>
        <time>2021-08-26T10:36:13+02:00</time>
      </trkpt>
      <trkpt lat="48.66454" lon="1.87392">
        <ele>171</ele>
        <time>2021-08-26T10:36:18+02:00</time>
      </trkpt>
      <trkpt lat="48.66439" lon="1.87414">
        <ele>171</ele>
        <time>2021-08-26T10:36:23+02:00</time>
      </trkpt>
      <trkpt lat="48.66433" lon="1.87399">
        <ele>171</ele>
        <time>2021-08-26T10:36:28+02:00</time>
      </trkpt>
      <trkpt lat="48.66271" lon="1.8747">
        <ele>170</ele>
        <time>2021-08-26T10:36:33+02:00</time>
      </trkpt>
      <trkpt lat="48.66311" lon="1.87704">
        <ele>175</ele>
        <time>2021-08-26T10:36:38+02:00</time>
      </trkpt>
      <trkpt lat="48.66236" lon="1.8786">
        <ele>174</ele>
        <time>2021-08-26T10:36:43+02:00</time>
      </trkpt>
      <trkpt lat="48.66217" lon="1.87874">
        <ele>173</ele>
        <time>2021-08-26T10:36:48+02:00</time>
      </trkpt>
      <trkpt lat="48.66188" lon="1.87933">
        <ele>171</ele>
        <time>2021-08-26T10:36:53+02:00</time>
      </trkpt>
      <trkpt lat="48.66178" lon="1.87954">
        <ele>171</ele>
        <time>2021-08-26T10:36:58+02:00</time>
      </trkpt>
      <trkpt lat="48.66159" lon="1.87996">
        <ele>172</ele>
        <time>2021-08-26T10:37:03+02:00</time>
      </trkpt>
      <trkpt lat="48.66137" lon="1.87995">
        <ele>172</ele>
        <time>2021-08-26T10:37:08+02:00</time>
      </trkpt>
    </trkseg>
  </trk>
</gpx>